sensor_id;sensor_type;location;lat;lon;timestamp;P1;durP1;ratioP1;P2;durP2;ratioP2
58597;SDS011;60319;46.908;16.848;2022-08-02T00:01:15;2.70;;;2.50;;
58597;SDS011;60319;46.908;16.848;2022-08-02T00:06:15;3.17;;;2.97;;
58597;SDS011;60319;46.908;16.848;2022-08-02T00:11:16;3.13;;;2.83;;
58597;SDS011;60319;46.908;16.848;2022-08-02T00:16:16;2.80;;;2.60;;
58597;SDS011;60319;46.908;16.848;2022-08-02T00:21:16;2.95;;;2.75;;
58597;SDS011;60319;46.908;16.848;2022-08-02T00:26:17;2.63;;;2.53;;
58597;SDS011;60319;46.908;16.848;2022-08-02T00:31:17;3.10;;;2.80;;
58597;SDS011;60319;46.908;16.848;2022-08-02T00:36:18;4.07;;;3.33;;
58597;SDS011;60319;46.908;16.848;2022-08-02T00:41:20;2.92;;;2.72;;
58597;SDS011;60319;46.908;16.848;2022-08-02T00:46:21;2.95;;;2.70;;
58597;SDS011;60319;46.908;16.848;2022-08-02T00:51:21;3.53;;;3.22;;
58597;SDS011;60319;46.908;16.848;2022-08-02T00:56:22;2.97;;;2.78;;
58597;SDS011;60319;46.908;16.848;2022-08-02T01:01:23;3.10;;;2.90;;
58597;SDS011;60319;46.908;16.848;2022-08-02T01:06:37;3.15;;;2.80;;
58597;SDS011;60319;46.908;16.848;2022-08-02T01:11:39;3.30;;;2.80;;
58597;SDS011;60319;46.908;16.848;2022-08-02T01:16:47;3.30;;;3.00;;
58597;SDS011;60319;46.908;16.848;2022-08-02T01:32:43;2.83;;;2.63;;
58597;SDS011;60319;46.908;16.848;2022-08-02T01:42:57;4.00;;;3.05;;
58597;SDS011;60319;46.908;16.848;2022-08-02T01:47:59;3.13;;;2.90;;
58597;SDS011;60319;46.908;16.848;2022-08-02T01:53:04;5.40;;;2.90;;
58597;SDS011;60319;46.908;16.848;2022-08-02T01:58:06;3.35;;;2.83;;
58597;SDS011;60319;46.908;16.848;2022-08-02T02:03:12;3.20;;;2.85;;
58597;SDS011;60319;46.908;16.848;2022-08-02T02:13:19;3.13;;;2.92;;
58597;SDS011;60319;46.908;16.848;2022-08-02T02:18:22;3.03;;;2.83;;
58597;SDS011;60319;46.908;16.848;2022-08-02T02:23:24;2.90;;;2.58;;
58597;SDS011;60319;46.908;16.848;2022-08-02T02:28:26;3.08;;;2.85;;
58597;SDS011;60319;46.908;16.848;2022-08-02T02:33:30;3.38;;;3.08;;
58597;SDS011;60319;46.908;16.848;2022-08-02T02:38:32;3.15;;;2.95;;
58597;SDS011;60319;46.908;16.848;2022-08-02T02:43:33;3.13;;;2.83;;
58597;SDS011;60319;46.908;16.848;2022-08-02T02:48:37;3.00;;;2.80;;
58597;SDS011;60319;46.908;16.848;2022-08-02T02:53:40;3.22;;;2.92;;
58597;SDS011;60319;46.908;16.848;2022-08-02T02:58:42;3.47;;;3.17;;
58597;SDS011;60319;46.908;16.848;2022-08-02T03:03:44;3.35;;;3.05;;
58597;SDS011;60319;46.908;16.848;2022-08-02T03:08:45;3.40;;;3.20;;
58597;SDS011;60319;46.908;16.848;2022-08-02T03:13:46;3.28;;;2.97;;
58597;SDS011;60319;46.908;16.848;2022-08-02T03:18:47;3.15;;;2.95;;
58597;SDS011;60319;46.908;16.848;2022-08-02T03:23:48;3.70;;;3.00;;
58597;SDS011;60319;46.908;16.848;2022-08-02T03:28:49;3.15;;;2.95;;
58597;SDS011;60319;46.908;16.848;2022-08-02T03:33:49;2.90;;;2.67;;
58597;SDS011;60319;46.908;16.848;2022-08-02T03:38:50;2.95;;;2.72;;
58597;SDS011;60319;46.908;16.848;2022-08-02T03:43:52;3.92;;;3.10;;
58597;SDS011;60319;46.908;16.848;2022-08-02T03:48:53;3.90;;;3.50;;
58597;SDS011;60319;46.908;16.848;2022-08-02T03:53:55;4.10;;;3.80;;
58597;SDS011;60319;46.908;16.848;2022-08-02T03:59:09;4.80;;;4.30;;
58597;SDS011;60319;46.908;16.848;2022-08-02T04:04:11;4.50;;;4.20;;
58597;SDS011;60319;46.908;16.848;2022-08-02T04:09:11;4.78;;;4.32;;
58597;SDS011;60319;46.908;16.848;2022-08-02T04:14:12;5.15;;;4.65;;
58597;SDS011;60319;46.908;16.848;2022-08-02T04:19:14;4.50;;;4.10;;
58597;SDS011;60319;46.908;16.848;2022-08-02T04:24:27;4.53;;;4.13;;
58597;SDS011;60319;46.908;16.848;2022-08-02T04:29:33;4.25;;;3.85;;
58597;SDS011;60319;46.908;16.848;2022-08-02T04:34:35;4.07;;;3.67;;
58597;SDS011;60319;46.908;16.848;2022-08-02T04:39:36;4.65;;;4.25;;
58597;SDS011;60319;46.908;16.848;2022-08-02T04:44:36;4.60;;;3.88;;
58597;SDS011;60319;46.908;16.848;2022-08-02T04:49:37;4.80;;;4.40;;
58597;SDS011;60319;46.908;16.848;2022-08-02T04:54:37;3.90;;;3.60;;
58597;SDS011;60319;46.908;16.848;2022-08-02T04:59:38;4.85;;;4.45;;
58597;SDS011;60319;46.908;16.848;2022-08-02T05:04:38;4.40;;;4.03;;
58597;SDS011;60319;46.908;16.848;2022-08-02T05:09:39;3.97;;;3.65;;
58597;SDS011;60319;46.908;16.848;2022-08-02T05:14:39;4.70;;;4.30;;
58597;SDS011;60319;46.908;16.848;2022-08-02T05:19:40;4.93;;;4.53;;
58597;SDS011;60319;46.908;16.848;2022-08-02T05:24:41;3.95;;;3.70;;
58597;SDS011;60319;46.908;16.848;2022-08-02T05:29:41;3.90;;;3.60;;
58597;SDS011;60319;46.908;16.848;2022-08-02T05:34:41;3.40;;;3.10;;
58597;SDS011;60319;46.908;16.848;2022-08-02T05:39:42;4.53;;;3.70;;
58597;SDS011;60319;46.908;16.848;2022-08-02T05:44:43;4.20;;;3.85;;
58597;SDS011;60319;46.908;16.848;2022-08-02T05:49:43;3.80;;;3.50;;
58597;SDS011;60319;46.908;16.848;2022-08-02T05:54:54;4.25;;;3.85;;
58597;SDS011;60319;46.908;16.848;2022-08-02T06:00:05;4.32;;;3.88;;
58597;SDS011;60319;46.908;16.848;2022-08-02T06:05:13;3.80;;;3.53;;
58597;SDS011;60319;46.908;16.848;2022-08-02T06:10:16;2.63;;;2.42;;
58597;SDS011;60319;46.908;16.848;2022-08-02T06:15:20;3.58;;;2.78;;
58597;SDS011;60319;46.908;16.848;2022-08-02T06:20:21;3.25;;;2.95;;
58597;SDS011;60319;46.908;16.848;2022-08-02T06:25:23;3.47;;;2.90;;
58597;SDS011;60319;46.908;16.848;2022-08-02T06:30:24;3.45;;;3.15;;
58597;SDS011;60319;46.908;16.848;2022-08-02T06:35:28;4.60;;;3.42;;
58597;SDS011;60319;46.908;16.848;2022-08-02T06:40:35;3.97;;;3.67;;
58597;SDS011;60319;46.908;16.848;2022-08-02T06:45:50;4.20;;;3.58;;
58597;SDS011;60319;46.908;16.848;2022-08-02T06:50:51;4.07;;;3.25;;
58597;SDS011;60319;46.908;16.848;2022-08-02T06:55:51;3.20;;;2.90;;
58597;SDS011;60319;46.908;16.848;2022-08-02T07:00:52;2.78;;;2.55;;
58597;SDS011;60319;46.908;16.848;2022-08-02T07:05:52;2.60;;;2.40;;
58597;SDS011;60319;46.908;16.848;2022-08-02T07:10:53;2.83;;;2.60;;
58597;SDS011;60319;46.908;16.848;2022-08-02T07:15:55;2.72;;;2.50;;
58597;SDS011;60319;46.908;16.848;2022-08-02T07:20:56;3.22;;;2.60;;
58597;SDS011;60319;46.908;16.848;2022-08-02T07:25:56;3.10;;;2.90;;
58597;SDS011;60319;46.908;16.848;2022-08-02T07:30:57;2.60;;;2.40;;
58597;SDS011;60319;46.908;16.848;2022-08-02T07:35:58;2.75;;;2.55;;
58597;SDS011;60319;46.908;16.848;2022-08-02T07:40:59;2.92;;;2.67;;
58597;SDS011;60319;46.908;16.848;2022-08-02T07:46:00;3.17;;;2.88;;
58597;SDS011;60319;46.908;16.848;2022-08-02T07:51:00;3.00;;;2.80;;
58597;SDS011;60319;46.908;16.848;2022-08-02T07:56:00;3.20;;;3.00;;
58597;SDS011;60319;46.908;16.848;2022-08-02T08:01:01;3.25;;;2.95;;
58597;SDS011;60319;46.908;16.848;2022-08-02T08:06:01;3.30;;;3.00;;
58597;SDS011;60319;46.908;16.848;2022-08-02T08:11:02;3.70;;;3.40;;
58597;SDS011;60319;46.908;16.848;2022-08-02T08:16:03;3.40;;;3.20;;
58597;SDS011;60319;46.908;16.848;2022-08-02T08:21:03;2.95;;;2.70;;
58597;SDS011;60319;46.908;16.848;2022-08-02T08:26:05;3.00;;;2.80;;
58597;SDS011;60319;46.908;16.848;2022-08-02T08:31:05;3.92;;;3.63;;
58597;SDS011;60319;46.908;16.848;2022-08-02T08:36:06;3.20;;;2.97;;
58597;SDS011;60319;46.908;16.848;2022-08-02T08:41:07;3.72;;;3.42;;
58597;SDS011;60319;46.908;16.848;2022-08-02T08:46:07;3.78;;;3.47;;
58597;SDS011;60319;46.908;16.848;2022-08-02T08:51:13;3.65;;;3.35;;
58597;SDS011;60319;46.908;16.848;2022-08-02T08:56:18;3.30;;;3.00;;
58597;SDS011;60319;46.908;16.848;2022-08-02T09:01:19;3.78;;;3.47;;
58597;SDS011;60319;46.908;16.848;2022-08-02T09:06:20;4.20;;;3.80;;
58597;SDS011;60319;46.908;16.848;2022-08-02T09:11:24;3.53;;;3.22;;
58597;SDS011;60319;46.908;16.848;2022-08-02T09:21:35;3.53;;;3.28;;
58597;SDS011;60319;46.908;16.848;2022-08-02T09:26:37;3.35;;;3.05;;
58597;SDS011;60319;46.908;16.848;2022-08-02T09:31:37;3.00;;;2.80;;
58597;SDS011;60319;46.908;16.848;2022-08-02T09:36:39;2.92;;;2.72;;
58597;SDS011;60319;46.908;16.848;2022-08-02T09:41:42;2.92;;;2.72;;
58597;SDS011;60319;46.908;16.848;2022-08-02T09:46:44;3.00;;;2.80;;
58597;SDS011;60319;46.908;16.848;2022-08-02T09:51:53;3.13;;;2.83;;
58597;SDS011;60319;46.908;16.848;2022-08-02T09:56:56;3.28;;;2.80;;
58597;SDS011;60319;46.908;16.848;2022-08-02T10:01:59;2.33;;;2.22;;
58597;SDS011;60319;46.908;16.848;2022-08-02T10:07:00;2.67;;;2.42;;
58597;SDS011;60319;46.908;16.848;2022-08-02T10:12:02;2.45;;;2.35;;
58597;SDS011;60319;46.908;16.848;2022-08-02T10:17:05;2.92;;;2.72;;
58597;SDS011;60319;46.908;16.848;2022-08-02T10:22:09;3.65;;;2.70;;
58597;SDS011;60319;46.908;16.848;2022-08-02T10:27:16;1.90;;;1.80;;
58597;SDS011;60319;46.908;16.848;2022-08-02T10:37:22;2.65;;;2.00;;
58597;SDS011;60319;46.908;16.848;2022-08-02T10:47:56;2.47;;;2.28;;
58597;SDS011;60319;46.908;16.848;2022-08-02T10:58:23;3.10;;;2.77;;
58597;SDS011;60319;46.908;16.848;2022-08-02T11:08:27;3.17;;;2.97;;
58597;SDS011;60319;46.908;16.848;2022-08-02T11:13:28;2.63;;;2.42;;
58597;SDS011;60319;46.908;16.848;2022-08-02T11:23:51;3.03;;;2.70;;
58597;SDS011;60319;46.908;16.848;2022-08-02T11:28:52;2.78;;;2.58;;
58597;SDS011;60319;46.908;16.848;2022-08-02T11:33:52;2.40;;;2.30;;
58597;SDS011;60319;46.908;16.848;2022-08-02T11:39:13;3.08;;;2.83;;
58597;SDS011;60319;46.908;16.848;2022-08-02T11:44:15;2.75;;;2.55;;
58597;SDS011;60319;46.908;16.848;2022-08-02T11:49:16;2.83;;;2.60;;
58597;SDS011;60319;46.908;16.848;2022-08-02T11:54:24;2.85;;;2.65;;
58597;SDS011;60319;46.908;16.848;2022-08-02T11:59:26;3.45;;;2.40;;
58597;SDS011;60319;46.908;16.848;2022-08-02T12:04:27;2.60;;;2.40;;
58597;SDS011;60319;46.908;16.848;2022-08-02T12:09:28;2.58;;;2.33;;
58597;SDS011;60319;46.908;16.848;2022-08-02T12:14:30;2.50;;;2.30;;
58597;SDS011;60319;46.908;16.848;2022-08-02T12:19:40;2.38;;;2.28;;
58597;SDS011;60319;46.908;16.848;2022-08-02T12:24:43;2.50;;;2.30;;
58597;SDS011;60319;46.908;16.848;2022-08-02T12:29:46;2.78;;;1.98;;
58597;SDS011;60319;46.908;16.848;2022-08-02T12:34:49;2.13;;;2.00;;
58597;SDS011;60319;46.908;16.848;2022-08-02T12:45:26;2.35;;;2.15;;
58597;SDS011;60319;46.908;16.848;2022-08-02T12:50:30;2.13;;;2.03;;
58597;SDS011;60319;46.908;16.848;2022-08-02T12:55:34;2.08;;;1.90;;
58597;SDS011;60319;46.908;16.848;2022-08-02T13:00:39;2.72;;;1.88;;
58597;SDS011;60319;46.908;16.848;2022-08-02T13:05:40;1.73;;;1.63;;
58597;SDS011;60319;46.908;16.848;2022-08-02T13:10:41;1.60;;;1.50;;
58597;SDS011;60319;46.908;16.848;2022-08-02T13:15:42;2.88;;;1.67;;
58597;SDS011;60319;46.908;16.848;2022-08-02T13:20:43;1.80;;;1.70;;
58597;SDS011;60319;46.908;16.848;2022-08-02T13:25:44;11.57;;;2.33;;
58597;SDS011;60319;46.908;16.848;2022-08-02T13:30:44;4.18;;;1.83;;
58597;SDS011;60319;46.908;16.848;2022-08-02T13:35:46;3.60;;;1.95;;
58597;SDS011;60319;46.908;16.848;2022-08-02T13:40:49;2.03;;;1.70;;
58597;SDS011;60319;46.908;16.848;2022-08-02T13:46:08;2.28;;;1.88;;
58597;SDS011;60319;46.908;16.848;2022-08-02T13:51:08;1.75;;;1.65;;
58597;SDS011;60319;46.908;16.848;2022-08-02T13:56:11;5.45;;;2.20;;
58597;SDS011;60319;46.908;16.848;2022-08-02T14:01:11;2.70;;;1.77;;
58597;SDS011;60319;46.908;16.848;2022-08-02T14:06:12;1.52;;;1.40;;
58597;SDS011;60319;46.908;16.848;2022-08-02T14:11:12;1.55;;;1.45;;
58597;SDS011;60319;46.908;16.848;2022-08-02T14:16:13;2.63;;;1.70;;
58597;SDS011;60319;46.908;16.848;2022-08-02T14:21:13;1.77;;;1.67;;
58597;SDS011;60319;46.908;16.848;2022-08-02T14:26:14;1.70;;;1.60;;
58597;SDS011;60319;46.908;16.848;2022-08-02T14:31:14;1.50;;;1.40;;
58597;SDS011;60319;46.908;16.848;2022-08-02T14:36:15;1.25;;;1.10;;
58597;SDS011;60319;46.908;16.848;2022-08-02T14:41:15;1.30;;;1.20;;
58597;SDS011;60319;46.908;16.848;2022-08-02T14:46:16;1.40;;;1.30;;
58597;SDS011;60319;46.908;16.848;2022-08-02T14:51:16;1.40;;;1.30;;
58597;SDS011;60319;46.908;16.848;2022-08-02T14:56:17;1.70;;;1.10;;
58597;SDS011;60319;46.908;16.848;2022-08-02T15:01:17;2.65;;;1.17;;
58597;SDS011;60319;46.908;16.848;2022-08-02T15:06:18;6.25;;;1.20;;
58597;SDS011;60319;46.908;16.848;2022-08-02T15:11:18;2.30;;;1.35;;
58597;SDS011;60319;46.908;16.848;2022-08-02T15:16:19;1.48;;;1.10;;
58597;SDS011;60319;46.908;16.848;2022-08-02T15:21:20;1.60;;;1.10;;
58597;SDS011;60319;46.908;16.848;2022-08-02T15:26:20;1.35;;;1.20;;
58597;SDS011;60319;46.908;16.848;2022-08-02T15:31:21;1.50;;;1.40;;
58597;SDS011;60319;46.908;16.848;2022-08-02T15:36:22;1.20;;;1.10;;
58597;SDS011;60319;46.908;16.848;2022-08-02T15:41:23;3.70;;;1.40;;
58597;SDS011;60319;46.908;16.848;2022-08-02T15:46:24;1.10;;;1.00;;
58597;SDS011;60319;46.908;16.848;2022-08-02T15:51:24;1.30;;;1.20;;
58597;SDS011;60319;46.908;16.848;2022-08-02T15:56:25;1.08;;;0.98;;
58597;SDS011;60319;46.908;16.848;2022-08-02T16:01:25;1.73;;;1.17;;
58597;SDS011;60319;46.908;16.848;2022-08-02T16:06:26;1.67;;;1.20;;
58597;SDS011;60319;46.908;16.848;2022-08-02T16:11:27;2.25;;;1.25;;
58597;SDS011;60319;46.908;16.848;2022-08-02T16:16:31;1.55;;;1.10;;
58597;SDS011;60319;46.908;16.848;2022-08-02T16:21:32;0.98;;;0.88;;
58597;SDS011;60319;46.908;16.848;2022-08-02T16:26:33;1.05;;;1.00;;
58597;SDS011;60319;46.908;16.848;2022-08-02T16:31:33;0.85;;;0.80;;
58597;SDS011;60319;46.908;16.848;2022-08-02T16:36:34;1.20;;;1.00;;
58597;SDS011;60319;46.908;16.848;2022-08-02T16:41:35;1.33;;;1.00;;
58597;SDS011;60319;46.908;16.848;2022-08-02T16:46:35;2.00;;;1.15;;
58597;SDS011;60319;46.908;16.848;2022-08-02T16:51:36;2.65;;;1.00;;
58597;SDS011;60319;46.908;16.848;2022-08-02T16:56:36;0.98;;;0.98;;
58597;SDS011;60319;46.908;16.848;2022-08-02T17:01:37;1.38;;;1.00;;
58597;SDS011;60319;46.908;16.848;2022-08-02T17:06:38;3.22;;;1.05;;
58597;SDS011;60319;46.908;16.848;2022-08-02T17:11:38;0.82;;;0.82;;
58597;SDS011;60319;46.908;16.848;2022-08-02T17:16:39;2.97;;;1.17;;
58597;SDS011;60319;46.908;16.848;2022-08-02T17:21:39;1.30;;;1.20;;
58597;SDS011;60319;46.908;16.848;2022-08-02T17:26:40;1.45;;;1.35;;
58597;SDS011;60319;46.908;16.848;2022-08-02T17:31:40;1.35;;;1.10;;
58597;SDS011;60319;46.908;16.848;2022-08-02T17:36:41;2.20;;;1.20;;
58597;SDS011;60319;46.908;16.848;2022-08-02T17:41:41;1.20;;;1.10;;
58597;SDS011;60319;46.908;16.848;2022-08-02T17:46:42;1.33;;;1.23;;
58597;SDS011;60319;46.908;16.848;2022-08-02T17:51:42;2.17;;;1.95;;
58597;SDS011;60319;46.908;16.848;2022-08-02T17:56:43;1.70;;;1.17;;
58597;SDS011;60319;46.908;16.848;2022-08-02T18:01:45;1.15;;;1.10;;
58597;SDS011;60319;46.908;16.848;2022-08-02T18:06:47;1.00;;;1.00;;
58597;SDS011;60319;46.908;16.848;2022-08-02T18:11:54;1.08;;;1.08;;
58597;SDS011;60319;46.908;16.848;2022-08-02T18:16:55;3.08;;;1.20;;
58597;SDS011;60319;46.908;16.848;2022-08-02T18:21:56;2.00;;;1.35;;
58597;SDS011;60319;46.908;16.848;2022-08-02T18:26:56;1.40;;;1.30;;
58597;SDS011;60319;46.908;16.848;2022-08-02T18:31:57;1.90;;;1.13;;
58597;SDS011;60319;46.908;16.848;2022-08-02T18:36:58;1.25;;;1.15;;
58597;SDS011;60319;46.908;16.848;2022-08-02T18:41:58;1.10;;;1.10;;
58597;SDS011;60319;46.908;16.848;2022-08-02T18:46:59;1.45;;;1.20;;
58597;SDS011;60319;46.908;16.848;2022-08-02T18:51:59;1.60;;;1.20;;
58597;SDS011;60319;46.908;16.848;2022-08-02T18:57:00;1.73;;;1.30;;
58597;SDS011;60319;46.908;16.848;2022-08-02T19:02:01;2.28;;;1.27;;
58597;SDS011;60319;46.908;16.848;2022-08-02T19:07:02;1.90;;;1.40;;
58597;SDS011;60319;46.908;16.848;2022-08-02T19:12:03;1.42;;;1.33;;
58597;SDS011;60319;46.908;16.848;2022-08-02T19:17:03;1.75;;;1.45;;
58597;SDS011;60319;46.908;16.848;2022-08-02T19:22:04;1.85;;;1.52;;
58597;SDS011;60319;46.908;16.848;2022-08-02T19:27:04;1.27;;;1.17;;
58597;SDS011;60319;46.908;16.848;2022-08-02T19:32:05;4.82;;;1.38;;
58597;SDS011;60319;46.908;16.848;2022-08-02T19:37:06;1.50;;;1.30;;
58597;SDS011;60319;46.908;16.848;2022-08-02T19:42:06;2.10;;;1.40;;
58597;SDS011;60319;46.908;16.848;2022-08-02T19:47:07;1.77;;;1.17;;
58597;SDS011;60319;46.908;16.848;2022-08-02T19:52:08;1.35;;;1.25;;
58597;SDS011;60319;46.908;16.848;2022-08-02T19:57:08;1.92;;;1.52;;
58597;SDS011;60319;46.908;16.848;2022-08-02T20:02:09;1.65;;;1.40;;
58597;SDS011;60319;46.908;16.848;2022-08-02T20:07:09;1.42;;;1.20;;
58597;SDS011;60319;46.908;16.848;2022-08-02T20:12:10;1.50;;;1.40;;
58597;SDS011;60319;46.908;16.848;2022-08-02T20:17:10;2.60;;;1.42;;
58597;SDS011;60319;46.908;16.848;2022-08-02T20:22:11;1.63;;;1.45;;
58597;SDS011;60319;46.908;16.848;2022-08-02T20:27:12;1.70;;;1.60;;
58597;SDS011;60319;46.908;16.848;2022-08-02T20:32:13;1.75;;;1.60;;
58597;SDS011;60319;46.908;16.848;2022-08-02T20:37:21;1.65;;;1.45;;
58597;SDS011;60319;46.908;16.848;2022-08-02T20:42:21;1.60;;;1.10;;
58597;SDS011;60319;46.908;16.848;2022-08-02T20:47:22;1.65;;;1.55;;
58597;SDS011;60319;46.908;16.848;2022-08-02T20:52:22;1.60;;;1.50;;
58597;SDS011;60319;46.908;16.848;2022-08-02T20:57:23;1.92;;;1.52;;
58597;SDS011;60319;46.908;16.848;2022-08-02T21:02:23;1.60;;;1.50;;
58597;SDS011;60319;46.908;16.848;2022-08-02T21:07:24;1.30;;;1.20;;
58597;SDS011;60319;46.908;16.848;2022-08-02T21:12:25;2.22;;;1.73;;
58597;SDS011;60319;46.908;16.848;2022-08-02T21:17:26;1.38;;;1.27;;
58597;SDS011;60319;46.908;16.848;2022-08-02T21:22:27;1.60;;;1.50;;
58597;SDS011;60319;46.908;16.848;2022-08-02T21:27:27;1.98;;;1.42;;
58597;SDS011;60319;46.908;16.848;2022-08-02T21:32:28;2.83;;;1.50;;
58597;SDS011;60319;46.908;16.848;2022-08-02T21:37:28;2.63;;;1.75;;
58597;SDS011;60319;46.908;16.848;2022-08-02T21:42:29;1.30;;;1.20;;
58597;SDS011;60319;46.908;16.848;2022-08-02T21:47:29;1.50;;;1.40;;
58597;SDS011;60319;46.908;16.848;2022-08-02T21:52:30;1.65;;;1.55;;
58597;SDS011;60319;46.908;16.848;2022-08-02T21:57:30;1.75;;;1.40;;
58597;SDS011;60319;46.908;16.848;2022-08-02T22:02:31;1.80;;;1.70;;
58597;SDS011;60319;46.908;16.848;2022-08-02T22:07:31;1.52;;;1.42;;
58597;SDS011;60319;46.908;16.848;2022-08-02T22:12:32;1.50;;;1.40;;
58597;SDS011;60319;46.908;16.848;2022-08-02T22:17:32;2.25;;;1.75;;
58597;SDS011;60319;46.908;16.848;2022-08-02T22:22:33;2.40;;;1.42;;
58597;SDS011;60319;46.908;16.848;2022-08-02T22:27:33;1.77;;;1.30;;
58597;SDS011;60319;46.908;16.848;2022-08-02T22:32:34;1.77;;;1.67;;
58597;SDS011;60319;46.908;16.848;2022-08-02T22:37:53;1.80;;;1.63;;
58597;SDS011;60319;46.908;16.848;2022-08-02T22:42:53;2.13;;;1.58;;
58597;SDS011;60319;46.908;16.848;2022-08-02T22:47:54;1.60;;;1.50;;
58597;SDS011;60319;46.908;16.848;2022-08-02T22:52:54;1.70;;;1.60;;
58597;SDS011;60319;46.908;16.848;2022-08-02T22:57:55;1.80;;;1.70;;
58597;SDS011;60319;46.908;16.848;2022-08-02T23:02:56;1.77;;;1.40;;
58597;SDS011;60319;46.908;16.848;2022-08-02T23:07:57;1.63;;;1.52;;
58597;SDS011;60319;46.908;16.848;2022-08-02T23:12:57;2.03;;;1.83;;
58597;SDS011;60319;46.908;16.848;2022-08-02T23:17:58;2.20;;;1.50;;
58597;SDS011;60319;46.908;16.848;2022-08-02T23:23:17;1.50;;;1.40;;
58597;SDS011;60319;46.908;16.848;2022-08-02T23:28:17;1.95;;;1.80;;
58597;SDS011;60319;46.908;16.848;2022-08-02T23:33:18;1.92;;;1.80;;
58597;SDS011;60319;46.908;16.848;2022-08-02T23:38:19;2.10;;;1.70;;
58597;SDS011;60319;46.908;16.848;2022-08-02T23:43:19;1.80;;;1.70;;
58597;SDS011;60319;46.908;16.848;2022-08-02T23:48:19;1.80;;;1.70;;
58597;SDS011;60319;46.908;16.848;2022-08-02T23:53:20;1.73;;;1.63;;
58597;SDS011;60319;46.908;16.848;2022-08-02T23:58:20;1.85;;;1.75;;
